createdAt,value
2017-04-03T00:01:04.378Z,15.59
2017-04-03T00:02:14.728Z,15.56
2017-04-03T00:03:24.804Z,15.63
2017-04-03T00:04:35.156Z,15.53
2017-04-03T00:05:45.190Z,15.53
2017-04-03T00:06:55.224Z,15.51
2017-04-03T00:08:05.590Z,15.49
2017-04-03T00:09:15.938Z,15.45
2017-04-03T00:10:25.965Z,15.45
2017-04-03T00:11:36.353Z,15.45
2017-04-03T00:12:46.716Z,15.4
2017-04-03T00:13:56.423Z,15.43
2017-04-03T00:15:06.759Z,15.43
2017-04-03T00:16:17.104Z,15.37
2017-04-03T00:17:27.437Z,15.33
2017-04-03T00:18:37.778Z,15.33
2017-04-03T00:19:47.554Z,15.26
2017-04-03T00:20:57.893Z,15.31
2017-04-03T00:22:07.622Z,15.33
2017-04-03T00:23:18.005Z,15.25
2017-04-03T00:24:28.334Z,15.25
2017-04-03T00:25:38.674Z,15.13
2017-04-03T00:26:48.710Z,15.2
2017-04-03T00:27:59.035Z,15.12
2017-04-03T00:29:09.372Z,15.08
2017-04-03T00:30:19.694Z,15.16
2017-04-03T00:31:29.105Z,15.1
2017-04-03T00:32:39.452Z,15.07
2017-04-03T00:33:49.821Z,15.07
2017-04-03T00:35:00.155Z,15.04
2017-04-03T00:36:10.497Z,15.02
2017-04-03T00:37:20.838Z,15
2017-04-03T00:38:31.173Z,14.89
2017-04-03T00:39:41.522Z,14.89
2017-04-03T00:40:51.852Z,14.87
2017-04-03T00:42:01.578Z,14.9
2017-04-03T00:43:11.926Z,14.87
2017-04-03T00:44:22.267Z,14.9
2017-04-03T00:45:32.291Z,14.89
2017-04-03T00:46:42.641Z,14.86
2017-04-03T00:47:52.979Z,14.89
2017-04-03T00:49:03.317Z,14.87
2017-04-03T00:50:13.661Z,14.93
2017-04-03T00:51:24.013Z,14.8
2017-04-03T00:52:34.346Z,14.77
2017-04-03T00:53:44.372Z,14.75
2017-04-03T00:54:54.707Z,14.82
2017-04-03T00:56:05.067Z,14.82
2017-04-03T00:57:15.096Z,14.79
2017-04-03T00:58:25.439Z,14.82
2017-04-03T00:59:35.774Z,14.79
2017-04-03T01:00:46.113Z,14.74
2017-04-03T01:01:56.465Z,14.74
2017-04-03T01:03:06.801Z,14.74
2017-04-03T01:04:17.136Z,14.77
2017-04-03T01:05:27.165Z,14.75
2017-04-03T01:06:37.513Z,14.74
2017-04-03T01:07:47.540Z,14.77
2017-04-03T01:08:57.899Z,14.69
2017-04-03T01:10:07.933Z,14.83
2017-04-03T01:11:18.280Z,14.8
2017-04-03T01:12:28.330Z,14.79
2017-04-03T01:13:38.658Z,14.82
2017-04-03T01:14:48.994Z,14.9
2017-04-03T01:15:59.018Z,14.89
2017-04-03T01:17:09.069Z,14.87
2017-04-03T01:18:19.394Z,14.83
2017-04-03T01:19:29.411Z,14.89
2017-04-03T01:20:39.453Z,14.85
2017-04-03T01:21:49.474Z,14.89
2017-04-03T01:22:59.546Z,14.89
2017-04-03T01:24:09.892Z,14.79
2017-04-03T01:25:19.919Z,14.75
2017-04-03T01:26:29.946Z,14.82
2017-04-03T01:27:39.986Z,14.79
2017-04-03T01:28:50.010Z,14.74
2017-04-03T01:29:59.739Z,14.82
2017-04-03T01:31:09.760Z,14.82
2017-04-03T01:32:20.104Z,14.79
2017-04-03T01:33:30.462Z,14.79
2017-04-03T01:34:40.802Z,14.89
2017-04-03T01:35:51.166Z,14.74
2017-04-03T01:37:01.501Z,14.79
2017-04-03T01:38:11.834Z,14.79
2017-04-03T01:39:22.211Z,14.77
2017-04-03T01:40:32.230Z,14.75
2017-04-03T01:41:42.259Z,14.85
2017-04-03T01:42:52.821Z,14.8
2017-04-03T01:44:03.167Z,14.77
2017-04-03T01:45:13.502Z,14.79
2017-04-03T01:46:23.836Z,14.77
2017-04-03T01:47:33.862Z,14.77
2017-04-03T01:48:44.199Z,14.83
2017-04-03T01:49:54.555Z,14.74
2017-04-03T01:51:04.901Z,14.71
2017-04-03T01:52:15.252Z,14.67
2017-04-03T01:53:25.586Z,14.67
2017-04-03T01:54:35.293Z,14.7
2017-04-03T01:55:45.649Z,14.64
2017-04-03T01:56:56.006Z,14.66
2017-04-03T01:58:06.035Z,14.66
2017-04-03T01:59:16.370Z,14.6
2017-04-03T02:00:26.710Z,14.64
2017-04-03T02:01:36.733Z,14.74
2017-04-03T02:02:47.071Z,14.51
2017-04-03T02:03:57.104Z,14.61
2017-04-03T02:05:07.429Z,14.59
2017-04-03T02:06:17.459Z,14.56
2017-04-03T02:07:27.798Z,14.53
2017-04-03T02:08:38.152Z,14.6
2017-04-03T02:09:48.724Z,14.66
2017-04-03T02:10:59.063Z,14.48
2017-04-03T02:12:09.447Z,14.57
2017-04-03T02:13:19.795Z,14.46
2017-04-03T02:14:29.832Z,14.51
2017-04-03T02:15:39.865Z,14.51
2017-04-03T02:16:49.888Z,14.46
2017-04-03T02:18:00.217Z,14.59
2017-04-03T02:19:10.259Z,14.49
2017-04-03T02:20:20.613Z,14.46
2017-04-03T02:21:30.939Z,14.48
2017-04-03T02:22:41.274Z,14.52
2017-04-03T02:23:51.300Z,14.44
2017-04-03T02:25:01.644Z,14.42
2017-04-03T02:26:11.997Z,14.39
2017-04-03T02:27:22.376Z,14.38
2017-04-03T02:28:32.699Z,14.31
2017-04-03T02:29:43.067Z,14.31
2017-04-03T02:30:52.778Z,14.16
2017-04-03T02:32:03.130Z,14.23
2017-04-03T02:33:13.465Z,14.26
2017-04-03T02:34:23.801Z,14.26
2017-04-03T02:35:34.138Z,14.3
2017-04-03T02:36:44.161Z,14.31
2017-04-03T02:37:54.193Z,14.27
2017-04-03T02:39:04.523Z,14.26
2017-04-03T02:40:15.124Z,14.26
2017-04-03T02:41:25.447Z,14.27
2017-04-03T02:42:35.486Z,14.26
2017-04-03T02:43:45.530Z,14.28
2017-04-03T02:44:55.568Z,14.28
2017-04-03T02:46:05.608Z,14.28
2017-04-03T02:47:15.935Z,14.24
2017-04-03T02:48:26.519Z,14.19
2017-04-03T02:49:36.857Z,14.26
2017-04-03T02:50:47.192Z,14.2
2017-04-03T02:51:57.227Z,14.19
2017-04-03T02:53:07.573Z,14.24
2017-04-03T02:54:17.913Z,14.23
2017-04-03T02:55:28.245Z,14.2
2017-04-03T02:56:38.579Z,14.15
2017-04-03T02:57:48.605Z,14.21
2017-04-03T02:58:58.633Z,14.15
2017-04-03T03:00:08.975Z,14.23
2017-04-03T03:01:19.366Z,14.24
2017-04-03T03:32:18.858Z,11.21
2017-04-03T03:33:29.224Z,11.1
2017-04-03T03:34:38.925Z,11.15
2017-04-03T03:35:48.947Z,11.16
2017-04-03T03:36:58.962Z,11.28
2017-04-03T03:38:09.305Z,11.42
2017-04-03T03:39:19.320Z,11.51
2017-04-03T03:40:29.654Z,11.66
2017-04-03T03:41:39.667Z,11.85
2017-04-03T03:42:49.687Z,11.94
2017-04-03T03:44:00.033Z,12.08
2017-04-03T03:45:10.061Z,12.23
2017-04-03T03:46:20.409Z,12.41
2017-04-03T03:47:30.748Z,12.52
2017-04-03T03:48:41.096Z,12.77
2017-04-03T03:49:51.447Z,12.81
2017-04-03T03:51:00.856Z,12.98
2017-04-03T03:52:11.220Z,13.11
2017-04-03T03:53:21.229Z,13.25
2017-04-03T03:54:31.557Z,13.32
2017-04-03T03:55:41.954Z,13.36
2017-04-03T03:56:52.288Z,13.44
2017-04-03T03:58:02.619Z,13.53
2017-04-03T03:59:12.959Z,13.45
2017-04-03T04:00:23.303Z,13.58
2017-04-03T04:01:33.636Z,13.53
2017-04-03T04:02:43.984Z,13.65
2017-04-03T04:03:54.003Z,13.66
2017-04-03T04:05:04.368Z,13.72
2017-04-03T04:06:14.704Z,13.87
2017-04-03T04:07:25.050Z,13.83
2017-04-03T04:08:35.393Z,13.84
2017-04-03T04:09:45.726Z,13.95
2017-04-03T04:10:56.061Z,13.91
2017-04-03T04:12:06.390Z,13.91
2017-04-03T04:13:16.106Z,13.93
2017-04-03T04:14:26.444Z,13.91
2017-04-03T04:15:36.464Z,13.87
2017-04-03T04:16:46.802Z,13.99
2017-04-03T04:17:56.834Z,13.94
2017-04-03T04:19:06.864Z,13.94
2017-04-03T04:20:17.199Z,13.94
2017-04-03T04:21:27.552Z,13.95
2017-04-03T04:22:37.569Z,13.99
2017-04-03T04:23:47.291Z,13.97
2017-04-03T04:24:57.629Z,13.94
2017-04-03T04:26:07.966Z,13.97
2017-04-03T04:27:18.297Z,13.95
2017-04-03T04:28:28.354Z,13.99
2017-04-03T04:29:38.684Z,14.05
2017-04-03T04:30:49.063Z,14.02
2017-04-03T04:31:59.090Z,13.94
2017-04-03T04:33:09.425Z,14.09
2017-04-03T04:34:19.758Z,14.09
2017-04-03T04:35:29.780Z,14.15
2017-04-03T04:36:39.801Z,14.08
2017-04-03T04:37:50.183Z,14.15
2017-04-03T04:39:00.201Z,14.19
2017-04-03T04:40:10.556Z,14.23
2017-04-03T04:41:20.283Z,14.2
2017-04-03T04:42:30.645Z,14.26
2017-04-03T04:43:40.988Z,14.33
2017-04-03T04:44:51.324Z,14.38
2017-04-03T04:46:01.646Z,14.51
2017-04-03T04:47:11.996Z,14.56
2017-04-03T04:48:22.341Z,14.67
2017-04-03T04:49:32.672Z,14.77
2017-04-03T04:50:43.034Z,14.86
2017-04-03T04:51:53.056Z,14.94
2017-04-03T04:53:03.076Z,15
2017-04-03T04:54:13.412Z,15.04
2017-04-03T04:55:23.756Z,15.13
2017-04-03T04:56:34.096Z,15.26
2017-04-03T04:57:44.459Z,15.23
2017-04-03T04:58:54.897Z,15.3
2017-04-03T05:00:05.247Z,15.35
2017-04-03T05:01:15.593Z,15.52
2017-04-03T05:02:25.988Z,15.6
2017-04-03T05:03:35.694Z,15.63
2017-04-03T05:04:46.035Z,15.86
2017-04-03T05:05:56.385Z,15.93
2017-04-03T05:07:06.453Z,15.91
2017-04-03T05:08:16.473Z,16.17
2017-04-03T05:09:26.816Z,16.32
2017-04-03T05:10:37.191Z,16.45
2017-04-03T05:11:47.229Z,16.44
2017-04-03T05:12:57.614Z,16.44
2017-04-03T05:14:07.972Z,16.55
2017-04-03T05:15:18.308Z,16.73
2017-04-03T05:16:28.353Z,16.92
2017-04-03T05:17:38.709Z,16.81
2017-04-03T05:18:49.042Z,16.59
2017-04-03T05:19:59.378Z,16.57
2017-04-03T05:21:09.753Z,16.45
2017-04-03T05:22:20.091Z,16.37
2017-04-03T05:23:30.116Z,16.34
2017-04-03T05:24:39.827Z,16.36
2017-04-03T05:25:50.183Z,16.4
2017-04-03T05:27:00.527Z,16.39
2017-04-03T05:28:10.872Z,16.36
2017-04-03T05:29:20.919Z,16.47
2017-04-03T05:30:31.264Z,16.49
2017-04-03T05:31:41.340Z,16.48
2017-04-03T05:32:51.663Z,16.55
2017-04-03T05:34:01.709Z,16.77
2017-04-03T05:35:11.811Z,16.84
2017-04-03T05:36:22.160Z,16.88
2017-04-03T05:37:32.500Z,16.91
2017-04-03T05:38:42.851Z,16.88
2017-04-03T05:39:52.870Z,16.8
2017-04-03T05:41:03.208Z,16.74
2017-04-03T05:42:13.252Z,16.82
2017-04-03T05:43:23.601Z,16.85
2017-04-03T05:44:33.949Z,16.82
2017-04-03T05:45:44.293Z,16.87
2017-04-03T05:46:54.328Z,16.95
2017-04-03T05:48:04.676Z,17.12
2017-04-03T05:49:15.029Z,17.06
2017-04-03T05:50:25.370Z,17
2017-04-03T05:51:35.101Z,17.06
2017-04-03T05:52:45.443Z,17.05
2017-04-03T05:53:55.485Z,17.1
2017-04-03T05:55:05.868Z,17.18
2017-04-03T05:56:15.897Z,17.32
2017-04-03T05:57:26.240Z,17.35
2017-04-03T05:58:36.646Z,17.35
2017-04-03T05:59:46.674Z,17.32
2017-04-03T06:00:56.700Z,17.2
2017-04-03T06:02:07.048Z,17.35
2017-04-03T06:03:17.073Z,17.42
2017-04-03T06:04:27.424Z,17.42
2017-04-03T06:05:37.782Z,17.43
2017-04-03T06:06:48.123Z,17.42
2017-04-03T06:07:58.155Z,17.5
2017-04-03T06:09:08.517Z,17.46
2017-04-03T06:10:18.871Z,17.54
2017-04-03T06:11:28.915Z,17.54
2017-04-03T06:12:38.622Z,17.52
2017-04-03T06:13:48.959Z,17.54
2017-04-03T06:14:59.291Z,17.55
2017-04-03T06:16:09.378Z,17.54
2017-04-03T06:17:19.715Z,17.55
2017-04-03T06:18:30.062Z,17.66
2017-04-03T06:19:40.085Z,17.73
2017-04-03T06:20:50.444Z,17.69
2017-04-03T06:22:00.799Z,17.69
2017-04-03T06:23:10.509Z,17.84
2017-04-03T06:24:20.864Z,17.88
2017-04-03T06:25:30.890Z,17.83
2017-04-03T06:26:40.614Z,17.86
2017-04-03T06:27:50.953Z,17.98
2017-04-03T06:29:00.990Z,18.08
2017-04-03T06:30:11.030Z,18.05
2017-04-03T06:31:21.379Z,18.05
2017-04-03T06:32:31.097Z,18.16
2017-04-03T06:33:41.462Z,18.17
2017-04-03T06:34:51.804Z,18.21
2017-04-03T06:36:02.202Z,18.16
2017-04-03T06:37:12.538Z,18.19
2017-04-03T06:38:22.888Z,18.24
2017-04-03T06:39:33.216Z,18.36
2017-04-03T06:40:43.245Z,18.34
2017-04-03T06:41:53.594Z,18.36
2017-04-03T06:43:03.940Z,18.45
2017-04-03T06:44:14.286Z,18.47
2017-04-03T06:45:24.335Z,18.44
2017-04-03T06:46:34.355Z,18.51
2017-04-03T06:47:44.699Z,18.6
2017-04-03T06:48:54.735Z,18.6
2017-04-03T06:50:04.773Z,18.69
2017-04-03T06:51:15.117Z,18.71
2017-04-03T06:52:25.494Z,18.69
2017-04-03T06:53:35.531Z,18.74
2017-04-03T06:54:45.582Z,18.82
2017-04-03T06:55:55.923Z,18.9
2017-04-03T06:57:06.267Z,18.91
2017-04-03T06:58:16.617Z,18.97
2017-04-03T06:59:26.971Z,18.96
2017-04-03T07:00:37.005Z,19.05
2017-04-03T07:01:47.344Z,19.05
2017-04-03T07:02:57.707Z,19.15
2017-04-03T07:04:08.057Z,19.27
2017-04-03T07:05:17.780Z,19.3
2017-04-03T07:06:28.111Z,19.34
2017-04-03T07:07:38.458Z,19.32
2017-04-03T07:08:48.794Z,19.34
2017-04-03T07:09:59.134Z,19.5
2017-04-03T07:11:09.486Z,19.5
2017-04-03T07:12:19.858Z,19.5
2017-04-03T07:13:30.209Z,19.56
2017-04-03T07:14:40.551Z,19.64
2017-04-03T07:15:50.625Z,19.64
2017-04-03T07:17:00.671Z,19.64
2017-04-03T07:18:10.705Z,19.74
2017-04-03T07:19:21.037Z,19.74
2017-04-03T07:20:31.379Z,19.83
2017-04-03T07:21:41.739Z,19.85
2017-04-03T07:22:51.500Z,20
2017-04-03T07:24:01.524Z,19.9
2017-04-03T07:25:11.866Z,19.97
2017-04-03T07:26:22.256Z,20.01
2017-04-03T07:27:31.975Z,20.08
2017-04-03T07:28:42.305Z,20
2017-04-03T07:29:52.638Z,20.02
2017-04-03T07:31:02.986Z,20.08
2017-04-03T07:32:12.693Z,20.1
2017-04-03T07:33:23.030Z,20.2
2017-04-03T07:34:33.385Z,20.3
2017-04-03T07:35:43.732Z,20.23
2017-04-03T07:36:54.072Z,20.34
2017-04-03T07:38:04.465Z,20.3
2017-04-03T07:39:14.813Z,20.37
2017-04-03T07:40:25.146Z,20.44
2017-04-03T07:41:35.481Z,20.56
2017-04-03T07:42:45.839Z,20.54
2017-04-03T07:43:55.885Z,20.64
2017-04-03T07:45:05.938Z,20.71
2017-04-03T07:46:15.994Z,20.66
2017-04-03T07:47:26.035Z,20.71
2017-04-03T07:48:36.073Z,20.68
2017-04-03T07:49:46.411Z,20.75
2017-04-03T07:50:57.007Z,20.83
2017-04-03T07:52:07.379Z,20.82
2017-04-03T07:53:17.720Z,20.75
2017-04-03T07:54:28.062Z,20.93
2017-04-03T07:55:37.772Z,20.85
2017-04-03T07:56:48.163Z,20.94
2017-04-03T07:57:58.512Z,20.94
2017-04-03T07:59:08.854Z,20.96
2017-04-03T08:00:19.202Z,20.93
2017-04-03T08:01:29.561Z,21.01
2017-04-03T08:02:39.599Z,21.01
2017-04-03T08:03:49.948Z,21.09
2017-04-03T08:05:00.292Z,21.11
2017-04-03T08:06:10.031Z,21.06
2017-04-03T08:07:20.364Z,21.18
2017-04-03T08:08:30.721Z,21.15
2017-04-03T08:09:41.074Z,21.27
2017-04-03T08:10:51.417Z,21.38
2017-04-03T08:12:01.758Z,21.48
2017-04-03T08:13:12.102Z,21.46
2017-04-03T08:14:22.455Z,21.46
2017-04-03T08:15:32.488Z,21.43
2017-04-03T08:16:42.871Z,21.52
2017-04-03T08:17:53.198Z,21.51
2017-04-03T08:19:03.546Z,21.53
2017-04-03T08:20:13.953Z,21.52
2017-04-03T08:21:24.311Z,21.58
2017-04-03T08:22:34.649Z,21.62
2017-04-03T08:23:45.035Z,21.59
2017-04-03T08:24:55.384Z,21.58
2017-04-03T08:26:05.718Z,21.71
2017-04-03T08:27:15.778Z,21.73
2017-04-03T08:28:26.126Z,21.7
2017-04-03T08:29:36.152Z,21.77
2017-04-03T08:30:46.501Z,21.82
2017-04-03T08:31:56.834Z,21.89
2017-04-03T08:33:06.883Z,21.93
2017-04-03T08:34:16.905Z,21.97
2017-04-03T08:35:26.960Z,22.02
2017-04-03T08:36:37.310Z,21.96
2017-04-03T08:37:47.332Z,21.94
2017-04-03T08:38:57.672Z,22.2
2017-04-03T08:40:08.014Z,22.22
2017-04-03T08:41:18.043Z,22.24
2017-04-03T08:42:28.098Z,22.29
2017-04-03T08:43:37.819Z,22.3
2017-04-03T08:44:48.185Z,22.29
2017-04-03T08:45:58.208Z,22.41
2017-04-03T08:47:08.568Z,22.34
2017-04-03T08:48:18.595Z,22.36
2017-04-03T08:49:28.929Z,22.3
2017-04-03T08:50:39.277Z,22.38
2017-04-03T08:51:49.330Z,22.38
2017-04-03T08:52:59.397Z,22.44
2017-04-03T08:54:09.815Z,22.44
2017-04-03T08:55:20.200Z,22.54
2017-04-03T08:56:30.561Z,22.54
2017-04-03T08:57:40.582Z,22.69
2017-04-03T08:58:50.975Z,22.79
2017-04-03T09:00:01.341Z,22.75
2017-04-03T09:01:11.410Z,22.78
2017-04-03T09:02:21.438Z,22.71
2017-04-03T09:03:31.778Z,22.81
2017-04-03T09:04:41.822Z,22.86
2017-04-03T09:05:52.184Z,22.91
2017-04-03T09:07:02.214Z,22.99
2017-04-03T09:08:12.571Z,22.97
2017-04-03T09:09:22.933Z,23.03
2017-04-03T09:10:33.312Z,22.99
2017-04-03T09:11:43.655Z,23.03
2017-04-03T09:12:54.015Z,23.01
2017-04-03T09:14:04.059Z,23.03
2017-04-03T09:15:14.405Z,23.09
2017-04-03T09:16:24.146Z,23.14
2017-04-03T09:17:34.518Z,23.22
2017-04-03T09:18:44.562Z,23.26
2017-04-03T09:19:54.603Z,23.32
2017-04-03T09:21:04.944Z,23.28
2017-04-03T09:22:14.985Z,23.34
2017-04-03T09:23:25.035Z,23.38
2017-04-03T09:24:35.375Z,23.37
2017-04-03T09:25:45.754Z,23.47
2017-04-03T09:26:55.789Z,23.45
2017-04-03T09:28:06.140Z,23.57
2017-04-03T09:29:16.175Z,23.56
2017-04-03T09:30:26.524Z,23.57
2017-04-03T09:31:36.574Z,23.63
2017-04-03T09:32:46.935Z,23.67
2017-04-03T09:33:57.266Z,23.7
2017-04-03T09:35:07.306Z,23.74
2017-04-03T09:36:17.668Z,23.78
2017-04-03T09:37:28.012Z,23.87
2017-04-03T09:38:38.371Z,23.94
2017-04-03T09:39:48.414Z,24
2017-04-03T09:40:58.763Z,24.07
2017-04-03T09:42:09.105Z,24.04
2017-04-03T09:43:19.450Z,24.02
2017-04-03T09:44:29.485Z,24.09
2017-04-03T09:45:39.533Z,24.17
2017-04-03T09:46:49.263Z,24.14
2017-04-03T09:47:59.649Z,24.15
2017-04-03T09:49:09.362Z,24.17
2017-04-03T09:50:19.404Z,24.17
2017-04-03T09:51:29.751Z,24.33
2017-04-03T09:52:40.147Z,24.37
2017-04-03T09:53:50.188Z,24.46
2017-04-03T09:54:59.939Z,24.51
2017-04-03T09:56:10.285Z,24.55
2017-04-03T09:57:20.644Z,24.64
2017-04-03T09:58:30.998Z,24.64
2017-04-03T09:59:41.349Z,24.67
2017-04-03T10:00:51.388Z,24.7
2017-04-03T10:02:01.729Z,24.77
2017-04-03T10:03:12.086Z,24.7
2017-04-03T10:04:22.135Z,24.75
2017-04-03T10:05:32.174Z,24.82
2017-04-03T10:06:42.528Z,24.8
2017-04-03T10:07:52.894Z,24.87
2017-04-03T10:09:03.233Z,24.87
2017-04-03T10:10:13.266Z,24.92
2017-04-03T10:11:23.618Z,25
2017-04-03T10:12:33.350Z,25.14
2017-04-03T10:13:43.722Z,25.12
2017-04-03T10:14:53.750Z,25.19
2017-04-03T10:16:03.785Z,25.29
2017-04-03T10:17:14.144Z,25.19
2017-04-03T10:18:24.168Z,25.27
2017-04-03T10:19:34.566Z,25.33
2017-04-03T10:20:44.289Z,25.37
2017-04-03T10:21:54.638Z,25.44
2017-04-03T10:23:05.006Z,25.47
2017-04-03T10:24:15.356Z,25.45
2017-04-03T10:25:25.397Z,25.51
2017-04-03T10:26:35.754Z,25.56
2017-04-03T10:27:46.116Z,25.48
2017-04-03T10:28:56.455Z,25.59
2017-04-03T10:30:06.497Z,25.66
2017-04-03T10:31:16.842Z,25.63
2017-04-03T10:32:27.173Z,25.59
2017-04-03T10:33:37.222Z,25.75
2017-04-03T10:34:47.260Z,25.7
2017-04-03T10:35:57.640Z,25.84
2017-04-03T10:37:08.004Z,25.84
2017-04-03T10:38:18.357Z,25.81
2017-04-03T10:39:28.708Z,25.69
2017-04-03T10:40:39.064Z,25.71
2017-04-03T10:41:49.114Z,25.69
2017-04-03T10:42:59.479Z,25.74
2017-04-03T10:44:09.508Z,25.81
2017-04-03T10:45:19.873Z,25.86
2017-04-03T10:46:30.228Z,25.91
2017-04-03T10:47:39.953Z,25.96
2017-04-03T10:48:49.685Z,25.96
2017-04-03T10:50:00.039Z,26.04
2017-04-03T10:51:10.427Z,26.07
2017-04-03T10:52:20.768Z,26.19
2017-04-03T10:53:31.127Z,26.23
2017-04-03T10:54:41.501Z,26.24
2017-04-03T10:55:51.553Z,26.34
2017-04-03T10:57:01.915Z,26.45
2017-04-03T10:58:11.956Z,26.31
2017-04-03T10:59:22.307Z,26.31
2017-04-03T11:00:32.666Z,26.31
2017-04-03T11:01:43.033Z,26.3
2017-04-03T11:02:53.077Z,26.27
2017-04-03T11:04:03.473Z,26.27
2017-04-03T11:05:13.832Z,26.45
2017-04-03T11:06:24.200Z,26.38
2017-04-03T11:07:34.241Z,26.41
2017-04-03T11:08:44.007Z,26.42
2017-04-03T11:09:54.362Z,26.42
2017-04-03T11:11:04.391Z,26.42
2017-04-03T11:12:14.755Z,26.5
2017-04-03T11:13:24.851Z,26.57
2017-04-03T11:14:35.210Z,26.64
2017-04-03T11:15:45.541Z,26.64
2017-04-03T11:16:55.575Z,26.67
2017-04-03T11:18:05.916Z,26.74
2017-04-03T11:19:15.959Z,26.76
2017-04-03T11:20:26.304Z,26.93
2017-04-03T11:21:36.332Z,26.79
2017-04-03T11:22:46.710Z,26.97
2017-04-03T11:23:57.067Z,26.93
2017-04-03T11:25:07.434Z,26.94
2017-04-03T11:26:17.789Z,26.97
2017-04-03T11:27:27.833Z,26.99
2017-04-03T11:28:38.179Z,27.05
2017-04-03T11:29:48.538Z,27.06
2017-04-03T11:30:58.881Z,26.99
2017-04-03T11:32:09.236Z,27.05
2017-04-03T11:33:19.604Z,27.08
2017-04-03T11:34:29.949Z,27
2017-04-03T11:35:40.318Z,27.12
2017-04-03T11:36:50.659Z,27.21
2017-04-03T11:38:01.020Z,27.23
2017-04-03T11:39:11.059Z,27.18
2017-04-03T11:40:21.411Z,27.34
2017-04-03T11:41:31.465Z,27.36
2017-04-03T11:42:41.488Z,27.46
2017-04-03T11:43:51.875Z,27.51
2017-04-03T11:45:02.231Z,27.49
2017-04-03T11:46:12.623Z,27.55
2017-04-03T11:47:22.981Z,27.51
2017-04-03T11:48:32.701Z,27.49
2017-04-03T11:49:43.067Z,27.49
2017-04-03T11:50:53.103Z,27.53
2017-04-03T11:52:03.457Z,27.53
2017-04-03T11:53:13.815Z,27.61
2017-04-03T11:54:23.859Z,27.62
2017-04-03T11:55:34.226Z,27.62
2017-04-03T11:56:44.278Z,27.66
2017-04-03T11:57:54.636Z,27.61
2017-04-03T11:59:05.000Z,27.81
2017-04-03T12:00:15.355Z,27.89
2017-04-03T12:01:25.425Z,28.02
2017-04-03T12:02:35.777Z,28.03
2017-04-03T12:03:46.125Z,28.2
2017-04-03T12:04:56.492Z,28.16
2017-04-03T12:06:06.856Z,28.18
2017-04-03T12:07:16.896Z,28.31
2017-04-03T12:08:27.247Z,28.31
2017-04-03T12:09:37.623Z,28.28
2017-04-03T12:10:47.967Z,28.3
2017-04-03T12:11:58.348Z,28.33
2017-04-03T12:13:08.699Z,28.28
2017-04-03T12:14:19.075Z,28.23
2017-04-03T12:15:29.120Z,28.21
2017-04-03T12:16:39.486Z,28.28
2017-04-03T12:17:49.844Z,28.28
2017-04-03T12:19:00.221Z,28.3
2017-04-03T12:20:10.571Z,28.39
2017-04-03T12:21:20.923Z,28.39
2017-04-03T12:22:31.260Z,28.41
2017-04-03T12:23:41.611Z,28.46
2017-04-03T12:24:51.979Z,28.35
2017-04-03T12:26:02.066Z,28.42
2017-04-03T12:27:12.444Z,28.49
2017-04-03T12:28:22.798Z,28.53
2017-04-03T12:29:33.141Z,28.54
2017-04-03T12:30:43.529Z,28.51
2017-04-03T12:31:53.920Z,28.63
2017-04-03T12:33:04.286Z,28.73
2017-04-03T12:34:14.966Z,28.67
2017-04-03T12:35:25.332Z,28.67
2017-04-03T12:36:35.377Z,28.64
2017-04-03T12:37:45.744Z,28.7
2017-04-03T12:38:56.084Z,28.45
2017-04-03T12:40:06.461Z,28.54
2017-04-03T12:41:16.815Z,28.57
2017-04-03T12:42:27.221Z,28.57
2017-04-03T12:43:37.558Z,28.65
2017-04-03T12:44:47.317Z,28.61
2017-04-03T12:45:57.542Z,28.67
2017-04-03T12:47:07.570Z,28.68
2017-04-03T12:48:16.990Z,28.68
2017-04-03T12:49:27.356Z,28.78
2017-04-03T12:50:37.383Z,28.83
2017-04-03T12:51:47.726Z,28.83
2017-04-03T12:52:58.085Z,28.88
2017-04-03T12:54:08.452Z,28.79
2017-04-03T12:55:18.803Z,28.86
2017-04-03T12:56:29.160Z,28.88
2017-04-03T12:57:39.204Z,28.91
2017-04-03T12:58:49.284Z,28.92
2017-04-03T12:59:59.316Z,28.95
2017-04-03T13:01:09.048Z,29.11
2017-04-03T13:02:19.400Z,29.33
2017-04-03T13:03:29.760Z,29.43
2017-04-03T13:04:39.802Z,29.5
2017-04-03T13:05:49.887Z,29.55
2017-04-03T13:06:59.925Z,29.5
2017-04-03T13:08:09.985Z,29.45
2017-04-03T13:09:20.344Z,29.51
2017-04-03T13:10:30.692Z,29.39
2017-04-03T13:11:41.030Z,29.45
2017-04-03T13:12:51.450Z,29.43
2017-04-03T13:14:01.813Z,29.48
2017-04-03T13:15:11.849Z,29.52
2017-04-03T13:16:22.206Z,29.51
2017-04-03T13:17:32.265Z,29.51
2017-04-03T13:18:42.644Z,29.55
2017-04-03T13:19:53.017Z,29.1
2017-04-03T13:21:03.370Z,28.65
2017-04-03T13:22:13.715Z,28.43
2017-04-03T13:23:23.756Z,28.53
2017-04-03T13:24:34.135Z,28.65
2017-04-03T13:25:44.521Z,28.79
2017-04-03T13:26:54.574Z,28.97
2017-04-03T13:28:04.939Z,29.13
2017-04-03T13:29:14.976Z,29.15
2017-04-03T13:30:25.326Z,29.24
2017-04-03T13:31:35.680Z,29.33
2017-04-03T13:32:46.016Z,29.1
2017-04-03T13:33:56.053Z,29.1
2017-04-03T13:35:06.408Z,28.82
2017-04-03T13:36:16.446Z,28.41
2017-04-03T13:37:26.797Z,28.41
2017-04-03T13:38:37.188Z,28.45
2017-04-03T13:39:47.227Z,28.48
2017-04-03T13:40:57.587Z,28.27
2017-04-03T13:42:07.937Z,27.99
2017-04-03T13:43:18.303Z,27.94
2017-04-03T13:44:28.643Z,28.17
2017-04-03T13:45:39.016Z,28.41
2017-04-03T13:46:49.365Z,28.57
2017-04-03T13:47:59.399Z,28.57
2017-04-03T13:49:09.759Z,28.49
2017-04-03T13:50:20.115Z,28.3
2017-04-03T13:51:30.479Z,27.94
2017-04-03T13:52:40.840Z,27.93
2017-04-03T13:53:51.181Z,27.83
2017-04-03T13:55:01.528Z,27.94
2017-04-03T13:56:11.567Z,28.08
2017-04-03T13:57:21.608Z,28.17
2017-04-03T13:58:31.702Z,28.17
2017-04-03T13:59:41.754Z,28.09
2017-04-03T14:00:52.121Z,28.17
2017-04-03T14:02:02.144Z,28.12
2017-04-03T14:03:12.193Z,28.11
2017-04-03T14:04:22.242Z,28.21
2017-04-03T14:05:32.638Z,28.18
2017-04-03T14:06:43.033Z,28.21
2017-04-03T14:07:53.073Z,28.01
2017-04-03T14:09:03.458Z,28.11
2017-04-03T14:10:13.810Z,27.84
2017-04-03T14:11:24.172Z,27.89
2017-04-03T14:12:34.544Z,28.05
2017-04-03T14:13:44.892Z,28.09
2017-04-03T14:14:55.301Z,28.03
2017-04-03T14:16:05.647Z,27.64
2017-04-03T14:17:15.701Z,27.37
2017-04-03T14:18:26.083Z,27.41
2017-04-03T14:19:36.440Z,27.09
2017-04-03T14:20:46.830Z,26.9
2017-04-03T14:21:56.912Z,26.76
2017-04-03T14:23:07.277Z,26.69
2017-04-03T14:24:17.021Z,26.96
2017-04-03T14:25:27.388Z,26.93
2017-04-03T14:26:37.750Z,26.68
2017-04-03T14:27:47.801Z,26.61
2017-04-03T14:28:58.164Z,26.76
2017-04-03T14:30:07.922Z,26.99
2017-04-03T14:31:18.335Z,27.01
2017-04-03T14:32:28.385Z,27.05
2017-04-03T14:33:38.490Z,27.12
2017-04-03T14:34:48.836Z,27.09
2017-04-03T14:35:59.203Z,27.16
2017-04-03T14:37:09.584Z,27.21
2017-04-03T14:38:19.668Z,27.24
2017-04-03T14:39:30.014Z,27.28
2017-04-03T14:40:40.620Z,27.33
2017-04-03T14:41:50.975Z,27.28
2017-04-03T14:43:01.338Z,27.41
2017-04-03T14:44:11.700Z,27.36
2017-04-03T14:45:22.064Z,27.34
2017-04-03T14:46:32.404Z,27.37
2017-04-03T14:47:42.455Z,27.38
2017-04-03T14:48:52.829Z,27.36
2017-04-03T14:50:03.229Z,27.51
2017-04-03T14:51:13.275Z,27.46
2017-04-03T14:52:23.648Z,27.36
2017-04-03T14:53:33.684Z,27.45
2017-04-03T14:54:44.050Z,27.45
2017-04-03T14:55:54.411Z,27.42
2017-04-03T14:57:04.859Z,27.48
2017-04-03T14:58:15.235Z,27.43
2017-04-03T14:59:25.613Z,27.37
2017-04-03T15:00:35.343Z,27.38
2017-04-03T15:01:45.720Z,27.43
2017-04-03T15:02:55.757Z,27.38
2017-04-03T15:04:05.815Z,27.34
2017-04-03T15:05:16.192Z,27.33
2017-04-03T15:06:25.941Z,27.19
2017-04-03T15:07:36.310Z,27.13
2017-04-03T15:08:46.696Z,27.11
2017-04-03T15:09:57.047Z,27.06
2017-04-03T15:11:07.433Z,26.97
2017-04-03T15:12:17.536Z,26.96
2017-04-03T15:13:27.916Z,26.91
2017-04-03T15:14:38.316Z,26.97
2017-04-03T15:15:48.680Z,26.93
2017-04-03T15:16:59.041Z,26.96
2017-04-03T15:18:08.788Z,26.78
2017-04-03T15:19:18.829Z,26.49
2017-04-03T15:20:29.204Z,26.41
2017-04-03T15:21:39.571Z,26.27
2017-04-03T15:22:49.626Z,26.32
2017-04-03T15:23:59.972Z,26.42
2017-04-03T15:25:10.334Z,26.41
2017-04-03T15:26:20.684Z,26.44
2017-04-03T15:27:30.738Z,26.23
2017-04-03T15:28:40.797Z,26.2
2017-04-03T15:29:50.531Z,26.23
2017-04-03T15:31:00.593Z,26.11
2017-04-03T15:32:10.970Z,26.01
2017-04-03T15:33:21.325Z,25.89
2017-04-03T15:34:31.698Z,25.79
2017-04-03T15:35:42.062Z,25.74
2017-04-03T15:36:52.407Z,25.84
2017-04-03T15:38:02.778Z,25.86